sensor_id;sensor_type;location;lat;lon;timestamp;noise_LAeq;noise_LA_min;noise_LA_max;noise_LA01;noise_LA95
74260;Laerm;62630;55.874;37.516;2022-10-16T00:00:37;52.66;46.19;61.12;;
74260;Laerm;62630;55.874;37.516;2022-10-16T00:03:03;55.47;46.66;68.11;;
74260;Laerm;62630;55.874;37.516;2022-10-16T00:05:29;55.31;47.95;68.69;;
74260;Laerm;62630;55.874;37.516;2022-10-16T00:07:55;56.20;47.16;73.84;;
74260;Laerm;62630;55.874;37.516;2022-10-16T00:10:21;56.59;49.43;72.43;;
74260;Laerm;62630;55.874;37.516;2022-10-16T00:12:46;54.07;48.57;65.33;;
74260;Laerm;62630;55.874;37.516;2022-10-16T00:15:12;55.88;48.95;66.26;;
74260;Laerm;62630;55.874;37.516;2022-10-16T00:17:38;51.64;47.26;67.49;;
74260;Laerm;62630;55.874;37.516;2022-10-16T00:20:04;52.01;47.08;60.06;;
74260;Laerm;62630;55.874;37.516;2022-10-16T00:22:30;56.08;48.18;68.10;;
74260;Laerm;62630;55.874;37.516;2022-10-16T00:24:55;55.16;47.27;68.85;;
74260;Laerm;62630;55.874;37.516;2022-10-16T00:27:21;55.81;47.25;68.66;;
74260;Laerm;62630;55.874;37.516;2022-10-16T00:29:50;56.14;47.59;70.47;;
74260;Laerm;62630;55.874;37.516;2022-10-16T00:32:16;54.00;46.99;67.09;;
74260;Laerm;62630;55.874;37.516;2022-10-16T00:34:42;52.61;47.73;60.59;;
74260;Laerm;62630;55.874;37.516;2022-10-16T00:37:07;53.14;48.16;64.50;;
74260;Laerm;62630;55.874;37.516;2022-10-16T00:39:33;50.58;47.06;55.01;;
74260;Laerm;62630;55.874;37.516;2022-10-16T00:41:58;50.38;45.43;54.68;;
74260;Laerm;62630;55.874;37.516;2022-10-16T00:44:44;53.97;47.05;65.38;;
74260;Laerm;62630;55.874;37.516;2022-10-16T00:47:33;57.40;47.19;72.28;;
74260;Laerm;62630;55.874;37.516;2022-10-16T00:52:34;53.24;46.88;63.41;;
74260;Laerm;62630;55.874;37.516;2022-10-16T00:55:00;53.47;46.57;63.07;;
74260;Laerm;62630;55.874;37.516;2022-10-16T00:57:27;53.91;47.09;67.76;;
74260;Laerm;62630;55.874;37.516;2022-10-16T00:59:53;55.34;46.27;69.61;;
74260;Laerm;62630;55.874;37.516;2022-10-16T01:02:18;58.31;47.30;73.43;;
74260;Laerm;62630;55.874;37.516;2022-10-16T01:04:49;51.83;46.52;63.55;;
74260;Laerm;62630;55.874;37.516;2022-10-16T01:12:14;68.32;47.57;83.16;;
74260;Laerm;62630;55.874;37.516;2022-10-16T01:14:58;58.05;47.73;71.12;;
74260;Laerm;62630;55.874;37.516;2022-10-16T01:20:17;54.13;46.75;66.25;;
74260;Laerm;62630;55.874;37.516;2022-10-16T01:23:10;52.72;47.30;64.02;;
74260;Laerm;62630;55.874;37.516;2022-10-16T01:26:17;54.70;47.39;72.30;;
74260;Laerm;62630;55.874;37.516;2022-10-16T01:28:51;59.70;47.77;79.27;;
74260;Laerm;62630;55.874;37.516;2022-10-16T01:31:20;57.17;48.03;69.41;;
74260;Laerm;62630;55.874;37.516;2022-10-16T01:33:51;55.89;47.94;67.85;;
74260;Laerm;62630;55.874;37.516;2022-10-16T01:36:24;56.04;48.00;70.90;;
74260;Laerm;62630;55.874;37.516;2022-10-16T01:38:54;58.11;48.23;70.80;;
74260;Laerm;62630;55.874;37.516;2022-10-16T01:41:28;50.79;46.40;56.64;;
74260;Laerm;62630;55.874;37.516;2022-10-16T01:44:17;60.09;47.01;72.54;;
74260;Laerm;62630;55.874;37.516;2022-10-16T01:46:47;55.91;47.09;67.94;;
74260;Laerm;62630;55.874;37.516;2022-10-16T01:49:14;56.91;47.74;70.55;;
74260;Laerm;62630;55.874;37.516;2022-10-16T01:51:44;54.51;48.22;64.22;;
74260;Laerm;62630;55.874;37.516;2022-10-16T01:54:12;53.91;47.28;63.69;;
74260;Laerm;62630;55.874;37.516;2022-10-16T01:56:39;56.79;47.30;71.46;;
74260;Laerm;62630;55.874;37.516;2022-10-16T01:59:09;54.76;47.20;71.09;;
74260;Laerm;62630;55.874;37.516;2022-10-16T02:01:38;57.63;47.78;70.87;;
74260;Laerm;62630;55.874;37.516;2022-10-16T02:04:21;55.35;47.83;63.47;;
74260;Laerm;62630;55.874;37.516;2022-10-16T02:06:49;57.14;48.53;67.19;;
74260;Laerm;62630;55.874;37.516;2022-10-16T02:09:15;52.34;46.95;59.79;;
74260;Laerm;62630;55.874;37.516;2022-10-16T02:11:42;56.29;47.64;66.39;;
74260;Laerm;62630;55.874;37.516;2022-10-16T02:14:08;56.06;48.84;68.63;;
74260;Laerm;62630;55.874;37.516;2022-10-16T02:16:45;56.50;48.82;67.93;;
74260;Laerm;62630;55.874;37.516;2022-10-16T02:19:12;58.84;48.32;72.33;;
74260;Laerm;62630;55.874;37.516;2022-10-16T02:21:51;57.44;48.34;68.81;;
74260;Laerm;62630;55.874;37.516;2022-10-16T02:24:33;58.65;47.64;73.30;;
74260;Laerm;62630;55.874;37.516;2022-10-16T02:27:25;59.20;48.33;70.44;;
74260;Laerm;62630;55.874;37.516;2022-10-16T02:29:56;54.51;46.80;67.93;;
74260;Laerm;62630;55.874;37.516;2022-10-16T02:32:28;56.20;47.36;68.75;;
74260;Laerm;62630;55.874;37.516;2022-10-16T02:34:56;55.20;48.49;67.49;;
74260;Laerm;62630;55.874;37.516;2022-10-16T02:37:24;52.61;48.32;64.30;;
74260;Laerm;62630;55.874;37.516;2022-10-16T02:39:51;53.65;48.23;64.59;;
74260;Laerm;62630;55.874;37.516;2022-10-16T02:42:17;58.42;49.45;71.32;;
74260;Laerm;62630;55.874;37.516;2022-10-16T02:44:43;55.82;49.11;65.89;;
74260;Laerm;62630;55.874;37.516;2022-10-16T02:47:09;57.31;48.69;66.70;;
74260;Laerm;62630;55.874;37.516;2022-10-16T02:49:35;57.45;47.55;69.02;;
74260;Laerm;62630;55.874;37.516;2022-10-16T02:52:00;53.51;47.92;65.70;;
74260;Laerm;62630;55.874;37.516;2022-10-16T02:54:25;54.73;46.77;69.16;;
74260;Laerm;62630;55.874;37.516;2022-10-16T02:56:51;59.63;47.16;75.36;;
74260;Laerm;62630;55.874;37.516;2022-10-16T02:59:17;54.24;47.15;67.21;;
74260;Laerm;62630;55.874;37.516;2022-10-16T03:01:42;57.28;45.99;71.97;;
74260;Laerm;62630;55.874;37.516;2022-10-16T03:04:08;59.87;48.45;69.61;;
74260;Laerm;62630;55.874;37.516;2022-10-16T03:06:34;53.02;47.79;64.35;;
74260;Laerm;62630;55.874;37.516;2022-10-16T03:09:00;57.29;48.21;69.24;;
74260;Laerm;62630;55.874;37.516;2022-10-16T03:11:25;54.29;47.71;72.38;;
74260;Laerm;62630;55.874;37.516;2022-10-16T03:13:51;57.90;48.55;69.16;;
74260;Laerm;62630;55.874;37.516;2022-10-16T03:16:17;56.87;48.93;68.69;;
74260;Laerm;62630;55.874;37.516;2022-10-16T03:18:43;58.75;49.27;67.59;;
74260;Laerm;62630;55.874;37.516;2022-10-16T03:21:08;59.17;49.22;71.09;;
74260;Laerm;62630;55.874;37.516;2022-10-16T03:23:33;56.59;48.75;66.65;;
74260;Laerm;62630;55.874;37.516;2022-10-16T03:25:59;59.24;49.80;70.60;;
74260;Laerm;62630;55.874;37.516;2022-10-16T03:28:24;59.04;50.35;73.11;;
74260;Laerm;62630;55.874;37.516;2022-10-16T03:30:50;56.80;49.54;67.52;;
74260;Laerm;62630;55.874;37.516;2022-10-16T03:33:15;56.50;50.02;67.18;;
74260;Laerm;62630;55.874;37.516;2022-10-16T03:35:41;57.90;50.49;69.66;;
74260;Laerm;62630;55.874;37.516;2022-10-16T03:38:06;55.58;48.63;67.44;;
74260;Laerm;62630;55.874;37.516;2022-10-16T03:40:32;61.89;50.11;73.37;;
74260;Laerm;62630;55.874;37.516;2022-10-16T03:42:58;56.64;49.59;69.18;;
74260;Laerm;62630;55.874;37.516;2022-10-16T03:45:24;63.72;51.84;83.64;;
74260;Laerm;62630;55.874;37.516;2022-10-16T03:47:50;59.22;50.54;68.59;;
74260;Laerm;62630;55.874;37.516;2022-10-16T03:50:15;63.13;50.70;74.45;;
74260;Laerm;62630;55.874;37.516;2022-10-16T03:52:41;57.90;50.06;69.56;;
74260;Laerm;62630;55.874;37.516;2022-10-16T03:55:07;57.98;50.29;70.49;;
74260;Laerm;62630;55.874;37.516;2022-10-16T03:57:32;59.72;50.57;70.30;;
74260;Laerm;62630;55.874;37.516;2022-10-16T03:59:58;60.26;50.96;72.93;;
74260;Laerm;62630;55.874;37.516;2022-10-16T04:02:23;59.79;50.97;70.95;;
74260;Laerm;62630;55.874;37.516;2022-10-16T04:04:49;60.28;50.51;69.70;;
74260;Laerm;62630;55.874;37.516;2022-10-16T04:07:14;61.02;52.57;70.90;;
74260;Laerm;62630;55.874;37.516;2022-10-16T04:09:40;59.51;50.41;75.00;;
74260;Laerm;62630;55.874;37.516;2022-10-16T04:12:05;62.73;52.98;82.67;;
74260;Laerm;62630;55.874;37.516;2022-10-16T04:14:31;59.24;52.32;74.74;;
74260;Laerm;62630;55.874;37.516;2022-10-16T04:16:56;61.59;51.01;74.96;;
74260;Laerm;62630;55.874;37.516;2022-10-16T04:19:22;59.37;50.79;71.72;;
74260;Laerm;62630;55.874;37.516;2022-10-16T04:21:47;59.36;51.61;70.19;;
74260;Laerm;62630;55.874;37.516;2022-10-16T04:24:13;64.48;52.32;83.39;;
74260;Laerm;62630;55.874;37.516;2022-10-16T04:26:38;59.40;51.14;67.56;;
74260;Laerm;62630;55.874;37.516;2022-10-16T04:29:04;60.94;51.12;75.13;;
74260;Laerm;62630;55.874;37.516;2022-10-16T04:31:30;55.67;49.42;74.61;;
74260;Laerm;62630;55.874;37.516;2022-10-16T04:33:55;63.15;51.51;80.64;;
74260;Laerm;62630;55.874;37.516;2022-10-16T04:36:21;62.47;50.36;74.64;;
74260;Laerm;62630;55.874;37.516;2022-10-16T04:38:46;62.81;52.94;71.42;;
74260;Laerm;62630;55.874;37.516;2022-10-16T04:41:12;59.68;51.07;74.35;;
74260;Laerm;62630;55.874;37.516;2022-10-16T04:43:38;64.06;52.67;78.58;;
74260;Laerm;62630;55.874;37.516;2022-10-16T04:46:03;60.36;53.23;70.72;;
74260;Laerm;62630;55.874;37.516;2022-10-16T04:48:30;62.15;52.55;72.02;;
74260;Laerm;62630;55.874;37.516;2022-10-16T04:50:55;59.34;51.87;70.48;;
74260;Laerm;62630;55.874;37.516;2022-10-16T04:53:21;61.42;52.58;70.69;;
74260;Laerm;62630;55.874;37.516;2022-10-16T04:55:47;59.73;51.79;75.57;;
74260;Laerm;62630;55.874;37.516;2022-10-16T04:58:12;64.31;55.08;80.63;;
74260;Laerm;62630;55.874;37.516;2022-10-16T05:00:38;65.38;54.20;76.10;;
74260;Laerm;62630;55.874;37.516;2022-10-16T05:03:04;61.90;52.08;74.15;;
74260;Laerm;62630;55.874;37.516;2022-10-16T05:05:32;60.54;52.93;75.82;;
74260;Laerm;62630;55.874;37.516;2022-10-16T05:07:58;62.94;52.41;74.41;;
74260;Laerm;62630;55.874;37.516;2022-10-16T05:10:24;63.16;51.95;87.12;;
74260;Laerm;62630;55.874;37.516;2022-10-16T05:12:49;59.38;50.70;70.53;;
74260;Laerm;62630;55.874;37.516;2022-10-16T05:15:16;62.30;52.19;71.78;;
74260;Laerm;62630;55.874;37.516;2022-10-16T05:17:41;60.16;50.91;71.78;;
74260;Laerm;62630;55.874;37.516;2022-10-16T05:20:07;62.20;52.23;73.02;;
74260;Laerm;62630;55.874;37.516;2022-10-16T05:22:33;60.71;51.48;74.36;;
74260;Laerm;62630;55.874;37.516;2022-10-16T05:24:58;63.16;52.93;75.42;;
74260;Laerm;62630;55.874;37.516;2022-10-16T05:27:24;61.19;51.54;71.97;;
74260;Laerm;62630;55.874;37.516;2022-10-16T05:29:49;60.42;52.13;71.86;;
74260;Laerm;62630;55.874;37.516;2022-10-16T05:32:16;59.72;51.76;70.17;;
74260;Laerm;62630;55.874;37.516;2022-10-16T05:34:42;63.07;53.41;73.47;;
74260;Laerm;62630;55.874;37.516;2022-10-16T05:37:08;63.83;52.57;73.38;;
74260;Laerm;62630;55.874;37.516;2022-10-16T05:39:34;61.50;51.26;75.36;;
74260;Laerm;62630;55.874;37.516;2022-10-16T05:41:59;67.47;52.02;85.72;;
74260;Laerm;62630;55.874;37.516;2022-10-16T05:44:25;61.34;50.71;72.21;;
74260;Laerm;62630;55.874;37.516;2022-10-16T05:46:52;62.86;53.20;73.00;;
74260;Laerm;62630;55.874;37.516;2022-10-16T05:49:17;65.49;53.47;85.37;;
74260;Laerm;62630;55.874;37.516;2022-10-16T05:51:43;59.46;52.22;71.65;;
74260;Laerm;62630;55.874;37.516;2022-10-16T05:54:08;60.18;52.29;70.19;;
74260;Laerm;62630;55.874;37.516;2022-10-16T05:56:34;61.68;52.98;73.87;;
74260;Laerm;62630;55.874;37.516;2022-10-16T05:58:59;60.68;51.77;72.69;;
74260;Laerm;62630;55.874;37.516;2022-10-16T06:01:25;62.94;52.64;74.18;;
74260;Laerm;62630;55.874;37.516;2022-10-16T06:03:52;61.45;51.45;70.22;;
74260;Laerm;62630;55.874;37.516;2022-10-16T06:06:21;61.68;51.39;73.38;;
74260;Laerm;62630;55.874;37.516;2022-10-16T06:08:48;61.58;51.41;74.30;;
74260;Laerm;62630;55.874;37.516;2022-10-16T06:11:23;62.02;51.71;74.13;;
74260;Laerm;62630;55.874;37.516;2022-10-16T06:13:50;59.31;51.45;71.46;;
74260;Laerm;62630;55.874;37.516;2022-10-16T06:16:16;62.64;54.41;72.62;;
74260;Laerm;62630;55.874;37.516;2022-10-16T06:18:41;62.64;53.96;71.76;;
74260;Laerm;62630;55.874;37.516;2022-10-16T06:21:16;63.32;53.28;75.80;;
74260;Laerm;62630;55.874;37.516;2022-10-16T06:23:42;62.98;54.01;71.23;;
74260;Laerm;62630;55.874;37.516;2022-10-16T06:26:10;61.87;53.24;70.21;;
74260;Laerm;62630;55.874;37.516;2022-10-16T06:28:36;61.30;52.43;69.77;;
74260;Laerm;62630;55.874;37.516;2022-10-16T06:31:03;63.36;54.59;72.34;;
74260;Laerm;62630;55.874;37.516;2022-10-16T06:33:30;63.09;54.69;73.21;;
74260;Laerm;62630;55.874;37.516;2022-10-16T06:36:27;66.02;53.86;81.18;;
74260;Laerm;62630;55.874;37.516;2022-10-16T06:38:53;60.66;53.01;68.23;;
74260;Laerm;62630;55.874;37.516;2022-10-16T06:41:20;64.93;53.12;76.52;;
74260;Laerm;62630;55.874;37.516;2022-10-16T06:43:46;62.07;51.47;75.43;;
74260;Laerm;62630;55.874;37.516;2022-10-16T06:46:14;63.15;53.34;73.90;;
74260;Laerm;62630;55.874;37.516;2022-10-16T06:48:40;61.14;51.16;71.17;;
74260;Laerm;62630;55.874;37.516;2022-10-16T06:51:09;61.70;53.26;71.68;;
74260;Laerm;62630;55.874;37.516;2022-10-16T06:53:37;62.85;53.68;74.47;;
74260;Laerm;62630;55.874;37.516;2022-10-16T06:56:11;63.66;53.00;72.33;;
74260;Laerm;62630;55.874;37.516;2022-10-16T06:58:37;64.74;53.67;73.48;;
74260;Laerm;62630;55.874;37.516;2022-10-16T07:01:04;63.97;52.22;76.00;;
74260;Laerm;62630;55.874;37.516;2022-10-16T07:03:30;63.18;55.26;73.38;;
74260;Laerm;62630;55.874;37.516;2022-10-16T07:05:56;62.86;51.31;80.39;;
74260;Laerm;62630;55.874;37.516;2022-10-16T07:08:22;63.49;53.32;73.53;;
74260;Laerm;62630;55.874;37.516;2022-10-16T07:10:47;61.17;50.38;75.71;;
74260;Laerm;62630;55.874;37.516;2022-10-16T07:13:13;62.70;53.49;71.85;;
74260;Laerm;62630;55.874;37.516;2022-10-16T07:15:40;60.96;50.99;71.30;;
74260;Laerm;62630;55.874;37.516;2022-10-16T07:18:06;63.62;53.99;73.70;;
74260;Laerm;62630;55.874;37.516;2022-10-16T07:20:31;62.37;51.34;71.38;;
74260;Laerm;62630;55.874;37.516;2022-10-16T07:22:57;60.71;50.97;71.13;;
74260;Laerm;62630;55.874;37.516;2022-10-16T07:25:22;63.56;52.70;74.23;;
74260;Laerm;62630;55.874;37.516;2022-10-16T07:27:48;64.81;51.83;77.65;;
74260;Laerm;62630;55.874;37.516;2022-10-16T07:30:13;62.32;52.00;72.29;;
74260;Laerm;62630;55.874;37.516;2022-10-16T07:32:39;61.57;52.46;72.14;;
74260;Laerm;62630;55.874;37.516;2022-10-16T07:35:05;62.72;52.83;70.97;;
74260;Laerm;62630;55.874;37.516;2022-10-16T07:37:30;61.80;51.39;72.54;;
74260;Laerm;62630;55.874;37.516;2022-10-16T07:39:56;61.83;52.66;72.90;;
74260;Laerm;62630;55.874;37.516;2022-10-16T07:42:21;60.61;51.98;72.02;;
74260;Laerm;62630;55.874;37.516;2022-10-16T07:44:47;63.96;51.44;72.68;;
74260;Laerm;62630;55.874;37.516;2022-10-16T07:47:12;64.22;53.78;72.30;;
74260;Laerm;62630;55.874;37.516;2022-10-16T07:49:38;66.77;52.22;76.12;;
74260;Laerm;62630;55.874;37.516;2022-10-16T07:52:03;67.77;61.33;73.97;;
74260;Laerm;62630;55.874;37.516;2022-10-16T07:54:29;67.01;58.73;76.22;;
74260;Laerm;62630;55.874;37.516;2022-10-16T07:56:54;67.33;52.19;84.87;;
74260;Laerm;62630;55.874;37.516;2022-10-16T07:59:20;61.48;51.77;72.06;;
74260;Laerm;62630;55.874;37.516;2022-10-16T08:01:45;62.26;52.28;72.00;;
74260;Laerm;62630;55.874;37.516;2022-10-16T08:04:11;64.03;53.94;71.74;;
74260;Laerm;62630;55.874;37.516;2022-10-16T08:06:38;63.32;53.28;77.48;;
74260;Laerm;62630;55.874;37.516;2022-10-16T08:09:05;64.25;52.73;81.88;;
74260;Laerm;62630;55.874;37.516;2022-10-16T08:11:31;63.15;53.28;76.36;;
74260;Laerm;62630;55.874;37.516;2022-10-16T08:13:56;63.83;54.52;72.05;;
74260;Laerm;62630;55.874;37.516;2022-10-16T08:16:22;66.30;51.41;76.89;;
74260;Laerm;62630;55.874;37.516;2022-10-16T08:18:47;62.59;51.15;74.06;;
74260;Laerm;62630;55.874;37.516;2022-10-16T08:21:16;64.80;55.87;77.32;;
74260;Laerm;62630;55.874;37.516;2022-10-16T08:23:42;61.55;52.74;70.66;;
74260;Laerm;62630;55.874;37.516;2022-10-16T08:26:08;64.86;52.16;90.72;;
74260;Laerm;62630;55.874;37.516;2022-10-16T08:28:35;70.03;54.84;84.72;;
74260;Laerm;62630;55.874;37.516;2022-10-16T08:31:11;64.14;55.74;72.48;;
74260;Laerm;62630;55.874;37.516;2022-10-16T08:33:38;62.34;51.03;75.61;;
74260;Laerm;62630;55.874;37.516;2022-10-16T08:36:06;63.60;53.82;74.45;;
74260;Laerm;62630;55.874;37.516;2022-10-16T08:38:32;62.59;54.89;72.24;;
74260;Laerm;62630;55.874;37.516;2022-10-16T08:46:50;63.31;51.81;73.10;;
74260;Laerm;62630;55.874;37.516;2022-10-16T08:49:17;62.29;51.99;71.67;;
74260;Laerm;62630;55.874;37.516;2022-10-16T08:51:43;64.20;55.23;72.40;;
74260;Laerm;62630;55.874;37.516;2022-10-16T08:54:34;66.34;57.75;74.69;;
74260;Laerm;62630;55.874;37.516;2022-10-16T08:57:17;62.34;53.76;73.02;;
74260;Laerm;62630;55.874;37.516;2022-10-16T08:59:45;64.07;51.57;82.24;;
74260;Laerm;62630;55.874;37.516;2022-10-16T09:07:57;64.55;51.82;80.32;;
74260;Laerm;62630;55.874;37.516;2022-10-16T09:18:43;63.79;54.01;72.84;;
74260;Laerm;62630;55.874;37.516;2022-10-16T09:21:21;64.43;51.73;80.69;;
74260;Laerm;62630;55.874;37.516;2022-10-16T09:23:48;64.35;50.57;84.40;;
74260;Laerm;62630;55.874;37.516;2022-10-16T09:26:16;63.01;52.04;74.89;;
74260;Laerm;62630;55.874;37.516;2022-10-16T09:28:43;64.57;51.77;76.64;;
74260;Laerm;62630;55.874;37.516;2022-10-16T09:31:17;64.11;52.76;73.02;;
74260;Laerm;62630;55.874;37.516;2022-10-16T09:33:44;62.93;52.59;70.99;;
74260;Laerm;62630;55.874;37.516;2022-10-16T09:36:11;67.45;58.71;76.41;;
74260;Laerm;62630;55.874;37.516;2022-10-16T09:38:38;62.44;53.14;73.63;;
74260;Laerm;62630;55.874;37.516;2022-10-16T09:41:21;64.38;55.18;72.70;;
74260;Laerm;62630;55.874;37.516;2022-10-16T09:43:56;62.37;52.37;70.88;;
74260;Laerm;62630;55.874;37.516;2022-10-16T09:46:33;64.71;52.72;74.50;;
74260;Laerm;62630;55.874;37.516;2022-10-16T09:49:02;64.92;53.17;79.30;;
74260;Laerm;62630;55.874;37.516;2022-10-16T09:51:36;62.55;53.31;70.82;;
74260;Laerm;62630;55.874;37.516;2022-10-16T09:54:22;62.37;54.70;70.15;;
74260;Laerm;62630;55.874;37.516;2022-10-16T09:56:48;64.00;52.45;72.97;;
74260;Laerm;62630;55.874;37.516;2022-10-16T09:59:21;63.77;54.06;71.55;;
74260;Laerm;62630;55.874;37.516;2022-10-16T10:01:55;64.88;56.18;73.28;;
74260;Laerm;62630;55.874;37.516;2022-10-16T10:04:23;63.22;53.63;73.32;;
74260;Laerm;62630;55.874;37.516;2022-10-16T10:06:51;64.13;52.84;71.50;;
74260;Laerm;62630;55.874;37.516;2022-10-16T10:09:34;63.21;54.16;73.53;;
74260;Laerm;62630;55.874;37.516;2022-10-16T10:12:04;66.01;53.61;77.63;;
74260;Laerm;62630;55.874;37.516;2022-10-16T10:14:47;66.53;54.58;80.37;;
74260;Laerm;62630;55.874;37.516;2022-10-16T10:17:24;62.39;53.66;71.23;;
74260;Laerm;62630;55.874;37.516;2022-10-16T10:20:13;62.67;52.13;72.41;;
74260;Laerm;62630;55.874;37.516;2022-10-16T10:22:45;65.27;55.53;78.22;;
74260;Laerm;62630;55.874;37.516;2022-10-16T10:38:27;63.69;54.04;82.17;;
74260;Laerm;62630;55.874;37.516;2022-10-16T10:41:27;64.78;54.75;73.70;;
74260;Laerm;62630;55.874;37.516;2022-10-16T10:50:14;64.29;55.43;72.57;;
74260;Laerm;62630;55.874;37.516;2022-10-16T10:55:45;64.62;56.12;83.87;;
74260;Laerm;62630;55.874;37.516;2022-10-16T11:01:09;63.63;53.68;72.30;;
74260;Laerm;62630;55.874;37.516;2022-10-16T11:06:49;62.64;52.59;74.45;;
74260;Laerm;62630;55.874;37.516;2022-10-16T11:09:19;64.21;51.90;77.52;;
74260;Laerm;62630;55.874;37.516;2022-10-16T11:12:17;63.13;53.47;75.64;;
74260;Laerm;62630;55.874;37.516;2022-10-16T11:15:20;65.65;54.39;78.16;;
74260;Laerm;62630;55.874;37.516;2022-10-16T11:17:57;63.91;54.56;72.63;;
74260;Laerm;62630;55.874;37.516;2022-10-16T11:20:26;62.09;51.58;72.15;;
74260;Laerm;62630;55.874;37.516;2022-10-16T11:23:05;61.92;52.97;71.06;;
74260;Laerm;62630;55.874;37.516;2022-10-16T11:25:34;64.30;53.11;76.06;;
74260;Laerm;62630;55.874;37.516;2022-10-16T11:28:23;64.38;53.18;74.65;;
74260;Laerm;62630;55.874;37.516;2022-10-16T11:30:57;64.01;55.83;78.94;;
74260;Laerm;62630;55.874;37.516;2022-10-16T11:33:41;66.35;54.52;77.07;;
74260;Laerm;62630;55.874;37.516;2022-10-16T11:36:23;62.91;54.19;77.10;;
74260;Laerm;62630;55.874;37.516;2022-10-16T11:39:16;63.28;52.49;72.55;;
74260;Laerm;62630;55.874;37.516;2022-10-16T11:41:51;62.45;53.93;73.23;;
74260;Laerm;62630;55.874;37.516;2022-10-16T11:44:44;63.60;51.51;75.14;;
74260;Laerm;62630;55.874;37.516;2022-10-16T11:50:02;63.61;52.81;73.46;;
74260;Laerm;62630;55.874;37.516;2022-10-16T11:55:37;65.35;52.83;76.07;;
74260;Laerm;62630;55.874;37.516;2022-10-16T11:58:15;64.54;52.96;76.53;;
74260;Laerm;62630;55.874;37.516;2022-10-16T12:00:47;63.35;54.72;71.58;;
74260;Laerm;62630;55.874;37.516;2022-10-16T12:03:31;63.81;56.12;72.26;;
74260;Laerm;62630;55.874;37.516;2022-10-16T12:08:54;63.32;53.33;76.58;;
74260;Laerm;62630;55.874;37.516;2022-10-16T12:11:33;63.11;52.99;72.51;;
74260;Laerm;62630;55.874;37.516;2022-10-16T12:19:20;63.16;54.05;72.50;;
74260;Laerm;62630;55.874;37.516;2022-10-16T12:21:46;63.64;51.85;74.43;;
74260;Laerm;62630;55.874;37.516;2022-10-16T12:24:32;63.47;53.88;72.80;;
74260;Laerm;62630;55.874;37.516;2022-10-16T12:26:59;63.48;54.88;74.63;;
74260;Laerm;62630;55.874;37.516;2022-10-16T12:29:37;64.09;53.65;78.23;;
74260;Laerm;62630;55.874;37.516;2022-10-16T12:32:05;62.32;52.50;75.42;;
74260;Laerm;62630;55.874;37.516;2022-10-16T12:34:43;62.20;55.24;71.07;;
74260;Laerm;62630;55.874;37.516;2022-10-16T12:37:14;64.46;55.37;73.33;;
74260;Laerm;62630;55.874;37.516;2022-10-16T12:39:45;63.92;54.33;72.58;;
74260;Laerm;62630;55.874;37.516;2022-10-16T12:44:53;63.37;53.20;72.96;;
74260;Laerm;62630;55.874;37.516;2022-10-16T12:47:35;66.78;57.43;85.12;;
74260;Laerm;62630;55.874;37.516;2022-10-16T12:50:02;64.72;54.65;77.23;;
74260;Laerm;62630;55.874;37.516;2022-10-16T12:54:59;60.68;53.04;70.50;;
74260;Laerm;62630;55.874;37.516;2022-10-16T13:00:57;66.36;54.29;78.74;;
74260;Laerm;62630;55.874;37.516;2022-10-16T13:06:08;66.02;53.75;88.91;;
74260;Laerm;62630;55.874;37.516;2022-10-16T13:15:12;65.01;53.40;85.96;;
74260;Laerm;62630;55.874;37.516;2022-10-16T13:28:12;62.48;52.90;71.91;;
74260;Laerm;62630;55.874;37.516;2022-10-16T13:30:43;62.15;54.10;71.03;;
74260;Laerm;62630;55.874;37.516;2022-10-16T13:35:35;64.26;53.82;77.46;;
74260;Laerm;62630;55.874;37.516;2022-10-16T13:38:12;64.77;55.67;86.69;;
74260;Laerm;62630;55.874;37.516;2022-10-16T13:40:52;63.84;55.67;72.22;;
74260;Laerm;62630;55.874;37.516;2022-10-16T13:43:22;62.80;54.44;72.62;;
74260;Laerm;62630;55.874;37.516;2022-10-16T13:48:25;64.67;55.46;75.04;;
74260;Laerm;62630;55.874;37.516;2022-10-16T13:51:11;64.35;52.73;74.88;;
74260;Laerm;62630;55.874;37.516;2022-10-16T13:53:38;65.09;54.79;76.38;;
74260;Laerm;62630;55.874;37.516;2022-10-16T13:56:05;64.83;55.72;79.78;;
74260;Laerm;62630;55.874;37.516;2022-10-16T13:58:32;65.03;56.55;74.64;;
74260;Laerm;62630;55.874;37.516;2022-10-16T14:01:11;65.72;55.64;86.94;;
74260;Laerm;62630;55.874;37.516;2022-10-16T14:03:41;64.61;56.56;78.97;;
74260;Laerm;62630;55.874;37.516;2022-10-16T14:06:11;66.56;56.18;75.91;;
74260;Laerm;62630;55.874;37.516;2022-10-16T14:08:42;61.81;54.13;71.64;;
74260;Laerm;62630;55.874;37.516;2022-10-16T14:11:10;64.25;54.48;74.84;;
74260;Laerm;62630;55.874;37.516;2022-10-16T14:13:57;65.52;53.81;79.99;;
74260;Laerm;62630;55.874;37.516;2022-10-16T14:16:28;63.42;53.91;73.83;;
74260;Laerm;62630;55.874;37.516;2022-10-16T14:18:59;61.91;52.52;71.88;;
74260;Laerm;62630;55.874;37.516;2022-10-16T14:21:27;65.19;54.73;74.98;;
74260;Laerm;62630;55.874;37.516;2022-10-16T14:23:54;66.37;55.52;77.17;;
74260;Laerm;62630;55.874;37.516;2022-10-16T14:26:23;62.70;52.72;73.62;;
74260;Laerm;62630;55.874;37.516;2022-10-16T14:29:14;64.12;54.71;73.61;;
74260;Laerm;62630;55.874;37.516;2022-10-16T14:31:40;63.58;54.30;80.03;;
74260;Laerm;62630;55.874;37.516;2022-10-16T14:34:31;63.37;55.04;71.01;;
74260;Laerm;62630;55.874;37.516;2022-10-16T14:37:00;62.79;53.86;71.02;;
74260;Laerm;62630;55.874;37.516;2022-10-16T14:39:28;65.33;56.26;76.13;;
74260;Laerm;62630;55.874;37.516;2022-10-16T14:41:56;65.76;56.48;86.86;;
74260;Laerm;62630;55.874;37.516;2022-10-16T14:44:28;62.88;53.77;72.57;;
74260;Laerm;62630;55.874;37.516;2022-10-16T14:46:55;62.86;55.17;70.54;;
74260;Laerm;62630;55.874;37.516;2022-10-16T14:49:22;61.78;53.38;72.13;;
74260;Laerm;62630;55.874;37.516;2022-10-16T14:51:48;64.03;57.63;77.06;;
74260;Laerm;62630;55.874;37.516;2022-10-16T14:54:16;64.16;54.18;82.06;;
74260;Laerm;62630;55.874;37.516;2022-10-16T14:56:49;62.89;54.51;71.24;;
74260;Laerm;62630;55.874;37.516;2022-10-16T14:59:19;63.55;53.07;72.35;;
74260;Laerm;62630;55.874;37.516;2022-10-16T15:01:46;63.36;54.45;74.97;;
74260;Laerm;62630;55.874;37.516;2022-10-16T15:04:12;63.01;55.94;73.43;;
74260;Laerm;62630;55.874;37.516;2022-10-16T15:06:38;63.27;53.64;82.42;;
74260;Laerm;62630;55.874;37.516;2022-10-16T15:09:03;62.58;55.90;71.51;;
74260;Laerm;62630;55.874;37.516;2022-10-16T15:11:31;67.10;57.01;87.51;;
74260;Laerm;62630;55.874;37.516;2022-10-16T15:13:57;63.79;56.17;72.73;;
74260;Laerm;62630;55.874;37.516;2022-10-16T15:16:23;63.96;56.42;72.18;;
74260;Laerm;62630;55.874;37.516;2022-10-16T15:18:49;64.41;56.45;74.20;;
74260;Laerm;62630;55.874;37.516;2022-10-16T15:21:23;63.73;53.67;74.68;;
74260;Laerm;62630;55.874;37.516;2022-10-16T15:23:49;64.59;53.87;81.32;;
74260;Laerm;62630;55.874;37.516;2022-10-16T15:26:16;63.20;54.24;75.08;;
74260;Laerm;62630;55.874;37.516;2022-10-16T15:28:41;63.60;55.00;75.12;;
74260;Laerm;62630;55.874;37.516;2022-10-16T15:31:07;62.23;52.70;75.67;;